Time;durP1;ratioP1;P1;durP2;ratioP2;P2;SDS_P1;SDS_P2;PMS_P1;PMS_P2;Temp;Humidity;BMP_temperature;BMP_pressure;BME280_temperature;BME280_humidity;BME280_pressure;Samples;Min_cycle;Max_cycle;Signal;HPM_P1;HPM_P2
2023/09/30 00:04:41;;;;;;;8.40;4.23;;;;;;;-144.32;100.00;68061.97;10313181;28;20683;-85
2023/09/30 00:09:42;;;;;;;8.32;4.05;;;;;;;-144.32;100.00;68061.97;10301331;28;20042;-82
2023/09/30 00:14:42;;;;;;;8.00;4.00;;;;;;;-144.32;100.00;68061.97;10325748;28;20137;-81
2023/09/30 00:19:44;;;;;;;7.28;4.18;;;;;;;-144.32;100.00;68061.97;10291497;28;20050;-80
2023/09/30 00:24:48;;;;;;;9.53;3.93;;;;;;;-144.32;100.00;68061.97;10327894;28;20149;-81
2023/09/30 00:29:50;;;;;;;7.53;4.03;;;;;;;-144.32;100.00;68061.97;10328770;28;20695;-81
2023/09/30 00:34:52;;;;;;;7.28;3.95;;;;;;;-144.32;100.00;68061.97;10361912;28;20074;-82
2023/09/30 00:39:53;;;;;;;9.23;3.53;;;;;;;-144.32;100.00;68061.97;10342939;28;20054;-83
2023/09/30 00:44:53;;;;;;;8.82;4.35;;;;;;;-144.32;100.00;68061.97;10320296;28;20093;-82
2023/09/30 00:49:56;;;;;;;6.63;3.28;;;;;;;-144.32;100.00;68061.97;10312529;28;20055;-82
2023/09/30 00:54:57;;;;;;;6.97;3.40;;;;;;;-144.32;100.00;68061.97;10323651;28;20049;-83
2023/09/30 00:59:59;;;;;;;5.93;3.47;;;;;;;-144.32;100.00;68061.97;10332570;28;20042;-87
2023/09/30 01:05:01;;;;;;;6.22;2.95;;;;;;;-144.32;100.00;68061.97;10319207;28;20114;-87
2023/09/30 01:10:03;;;;;;;6.82;3.47;;;;;;;-144.32;100.00;68061.97;10344517;28;20097;-84
2023/09/30 01:15:05;;;;;;;4.68;2.90;;;;;;;-144.32;100.00;68061.97;10334854;28;20110;-85
2023/09/30 01:20:08;;;;;;;7.25;3.20;;;;;;;-144.32;100.00;68061.97;10322369;28;20046;-84
2023/09/30 01:25:10;;;;;;;;;;;;;;;-144.32;100.00;68061.97;10328207;28;20053;-87
2023/09/30 01:30:13;;;;;;;5.05;2.72;;;;;;;-144.32;100.00;68061.97;10342360;28;20067;-83
2023/09/30 01:35:14;;;;;;;4.57;3.00;;;;;;;-144.32;100.00;68061.97;10346446;28;20050;-83
2023/09/30 01:40:14;;;;;;;5.53;3.15;;;;;;;-144.32;100.00;68061.97;10322501;28;20042;-82
2023/09/30 01:45:15;;;;;;;5.10;2.80;;;;;;;-144.32;100.00;68061.97;10302335;28;20042;-83
2023/09/30 01:50:17;;;;;;;4.00;2.88;;;;;;;-144.32;100.00;68061.97;10314973;28;20043;-81
2023/09/30 01:55:17;;;;;;;5.18;2.85;;;;;;;-144.32;100.00;68061.97;10325510;28;20044;-85
2023/09/30 02:00:18;;;;;;;6.03;2.95;;;;;;;-144.32;100.00;68061.97;10309152;28;20054;-83
2023/09/30 02:21:34;;;;;;;5.60;2.72;;;;;;;-144.32;100.00;68061.97;10938159;23;19946;-79
2023/09/30 02:26:40;;;;;;;4.88;3.00;;;;;;;-144.32;100.00;68061.97;10455012;23;20035;-79
2023/09/30 02:31:41;;;;;;;;;;;;;;;-144.32;100.00;68061.97;10285959;28;20066;-81
2023/09/30 02:36:41;;;;;;;5.07;3.00;;;;;;;-144.32;100.00;68061.97;10279220;28;19911;-85
2023/09/30 02:41:42;;;;;;;4.45;2.30;;;;;;;-144.32;100.00;68061.97;10265459;28;20106;-82
2023/09/30 02:46:43;;;;;;;5.13;3.00;;;;;;;-144.32;100.00;68061.97;10244528;28;20038;-82
2023/09/30 02:51:44;;;;;;;3.10;2.00;;;;;;;-144.32;100.00;68061.97;10279172;28;20223;-82
2023/09/30 02:56:46;;;;;;;4.47;2.95;;;;;;;-144.32;100.00;68061.97;10245637;28;20115;-84
2023/09/30 03:01:47;;;;;;;7.38;3.63;;;;;;;-144.32;100.00;68061.97;10234503;28;20040;-82
2023/09/30 03:06:48;;;;;;;3.95;2.80;;;;;;;-144.32;100.00;68061.97;10238029;28;20051;-85
2023/09/30 03:11:49;;;;;;;8.35;3.70;;;;;;;-144.32;100.00;68061.97;10239476;28;20134;-82
2023/09/30 03:16:50;;;;;;;5.85;2.88;;;;;;;-144.32;100.00;68061.97;10247834;28;20829;-88
2023/09/30 03:21:52;;;;;;;7.80;2.97;;;;;;;-144.32;100.00;68061.97;10257122;28;20113;-86
2023/09/30 03:26:53;;;;;;;5.95;3.25;;;;;;;-144.32;100.00;68061.97;10249707;28;20711;-86
2023/09/30 03:31:54;;;;;;;4.80;2.88;;;;;;;-144.32;100.00;68061.97;10223895;28;20043;-85
2023/09/30 03:36:58;;;;;;;6.53;2.85;;;;;;;-144.32;100.00;68061.97;10241535;28;20115;-86
2023/09/30 03:42:00;;;;;;;5.15;2.78;;;;;;;-144.32;100.00;68061.97;10232051;28;20043;-83
2023/09/30 03:47:08;;;;;;;5.40;2.83;;;;;;;-144.32;100.00;68061.97;10248579;28;20055;-84
2023/09/30 03:52:14;;;;;;;7.65;2.97;;;;;;;-144.32;100.00;68061.97;10261570;28;20118;-82
2023/09/30 03:57:16;;;;;;;5.60;2.83;;;;;;;-144.32;100.00;68061.97;10273281;28;20047;-82
2023/09/30 04:02:19;;;;;;;5.78;2.95;;;;;;;-144.32;100.00;68061.97;10270867;28;20047;-80
2023/09/30 04:07:27;;;;;;;5.07;3.05;;;;;;;-144.32;100.00;68061.97;10264650;28;20035;-83
2023/09/30 04:12:28;;;;;;;5.10;3.22;;;;;;;-144.32;100.00;68061.97;10288234;28;20046;-83
2023/09/30 04:17:31;;;;;;;6.50;3.30;;;;;;;-144.32;100.00;68061.97;10446680;23;20054;-85
2023/09/30 04:22:35;;;;;;;7.10;3.72;;;;;;;-144.32;100.00;68061.97;10202762;29;20040;-83
2023/09/30 04:27:38;;;;;;;5.15;2.85;;;;;;;-144.32;100.00;68061.97;10206416;29;20043;-83
2023/09/30 04:32:39;;;;;;;3.95;2.85;;;;;;;-144.32;100.00;68061.97;10193798;29;20051;-81
2023/09/30 04:37:41;;;;;;;4.28;2.65;;;;;;;-144.32;100.00;68061.97;10168595;29;20055;-83
2023/09/30 04:42:49;;;;;;;4.72;2.97;;;;;;;-144.32;100.00;68061.97;10176048;29;20044;-87
2023/09/30 04:47:50;;;;;;;4.95;2.63;;;;;;;-144.32;100.00;68061.97;10159855;29;20066;-82
2023/09/30 04:52:51;;;;;;;4.53;3.05;;;;;;;-144.32;100.00;68061.97;10164360;29;20054;-81
2023/09/30 04:57:52;;;;;;;4.75;2.80;;;;;;;-144.32;100.00;68061.97;10157460;29;20143;-83
2023/09/30 05:02:59;;;;;;;8.52;3.00;;;;;;;-144.32;100.00;68061.97;10169789;29;20067;-84
2023/09/30 05:07:59;;;;;;;5.05;3.22;;;;;;;-144.32;100.00;68061.97;10189042;28;20044;-84
2023/09/30 05:18:32;;;;;;;7.63;3.92;;;;;;;-144.32;100.00;68061.97;10165373;29;20745;-81
2023/09/30 05:23:35;;;;;;;11.37;4.07;;;;;;;-144.32;100.00;68061.97;10141056;29;20503;-84
2023/09/30 05:28:36;;;;;;;5.28;3.63;;;;;;;-144.32;100.00;68061.97;10137101;29;20064;-81
2023/09/30 05:33:40;;;;;;;7.57;4.13;;;;;;;-144.32;100.00;68061.97;10135626;29;20081;-82
2023/09/30 05:38:41;;;;;;;5.83;3.90;;;;;;;-144.32;100.00;68061.97;10123973;29;20059;-82
2023/09/30 05:43:43;;;;;;;5.35;3.88;;;;;;;-144.32;100.00;68061.97;10130412;29;20047;-83
2023/09/30 05:48:45;;;;;;;8.38;4.45;;;;;;;-144.32;100.00;68061.97;10142327;29;20044;-82
2023/09/30 05:53:48;;;;;;;8.98;4.25;;;;;;;-144.32;100.00;68061.97;10147163;29;20100;-83
2023/09/30 05:58:48;;;;;;;8.40;4.60;;;;;;;-144.32;100.00;68061.97;10108818;29;20156;-83
2023/09/30 06:03:49;;;;;;;7.63;4.72;;;;;;;-144.32;100.00;68061.97;10107034;29;20064;-80
2023/09/30 06:08:50;;;;;;;7.75;5.05;;;;;;;-144.32;100.00;68061.97;10264850;23;20066;-81
2023/09/30 06:13:52;;;;;;;8.18;4.88;;;;;;;-144.32;100.00;68061.97;10521442;23;20051;-88
2023/09/30 06:18:54;;;;;;;7.43;4.20;;;;;;;-144.32;100.00;68061.97;10261464;28;20429;-89
2023/09/30 06:23:55;;;;;;;7.07;4.70;;;;;;;-144.32;100.00;68061.97;10282412;28;20050;-83
2023/09/30 06:28:56;;;;;;;7.95;5.20;;;;;;;-144.32;100.00;68061.97;10288101;28;20090;-81
2023/09/30 06:34:04;;;;;;;8.60;4.88;;;;;;;-144.32;100.00;68061.97;11411379;23;20031;-87
2023/09/30 06:39:23;;;;;;;7.57;4.57;;;;;;;-144.32;100.00;68061.97;10518958;23;20078;-85
2023/09/30 06:44:24;;;;;;;6.07;4.03;;;;;;;-144.32;100.00;68061.97;10251877;28;20078;-86
2023/09/30 06:49:25;;;;;;;6.05;3.92;;;;;;;-144.32;100.00;68061.97;10338677;23;20042;-86
2023/09/30 06:54:26;;;;;;;6.82;4.00;;;;;;;-144.32;100.00;68061.97;10301694;28;20046;-84
2023/09/30 06:59:36;;;;;;;8.73;4.10;;;;;;;-144.32;100.00;68061.97;10309100;28;20047;-86
2023/09/30 07:04:38;;;;;;;6.25;3.90;;;;;;;-144.32;100.00;68061.97;10262411;28;20475;-84
2023/09/30 07:09:41;;;;;;;7.65;3.60;;;;;;;-144.32;100.00;68061.97;10255410;28;20048;-88
2023/09/30 07:14:43;;;;;;;7.72;3.42;;;;;;;-144.32;100.00;68061.97;10268804;28;20447;-87
2023/09/30 07:19:43;;;;;;;7.20;3.63;;;;;;;-144.32;100.00;68061.97;10245717;28;20038;-83
2023/09/30 07:24:47;;;;;;;6.82;3.75;;;;;;;-144.32;100.00;68061.97;10245011;28;20044;-86
2023/09/30 07:29:50;;;;;;;5.82;2.83;;;;;;;-144.32;100.00;68061.97;10248826;28;20047;-86
2023/09/30 07:34:52;;;;;;;6.53;2.80;;;;;;;-144.32;100.00;68061.97;10252247;28;20062;-86
2023/09/30 07:39:53;;;;;;;6.47;2.85;;;;;;;-144.32;100.00;68061.97;10534732;23;20498;-85
2023/09/30 07:44:54;;;;;;;6.55;3.00;;;;;;;-144.32;100.00;68061.97;10617248;23;20215;-86
2023/09/30 07:50:06;;;;;;;5.95;2.95;;;;;;;-144.32;100.00;68061.97;10706423;23;20046;-87
2023/09/30 07:55:12;;;;;;;5.40;2.92;;;;;;;-144.32;100.00;68061.97;10290297;28;20131;-86
2023/09/30 08:11:08;;;;;;;5.53;3.20;;;;;;;-144.32;100.00;68061.97;11314720;23;20307;-85
2023/09/30 08:16:13;;;;;;;5.68;3.03;;;;;;;-144.32;100.00;68061.97;10394079;23;20062;-81
2023/09/30 08:37:25;;;;;;;4.55;3.10;;;;;;;-144.32;100.00;68061.97;11088442;23;19929;-84
2023/09/30 08:48:05;;;;;;;6.32;3.20;;;;;;;-144.32;100.00;68061.97;10612310;23;20144;-85
2023/09/30 08:53:06;;;;;;;6.65;3.03;;;;;;;-144.32;100.00;68061.97;10307148;28;20042;-87
2023/09/30 08:58:10;;;;;;;5.05;3.30;;;;;;;-144.32;100.00;68061.97;10323471;28;20026;-82
2023/09/30 09:08:32;;;;;;;6.50;3.45;;;;;;;-144.32;100.00;68061.97;10552523;23;20067;-83
2023/09/30 09:13:55;;;;;;;5.93;3.67;;;;;;;-144.32;100.00;68061.97;11218078;23;20040;-85
2023/09/30 09:19:23;;;;;;;4.55;3.03;;;;;;;-144.32;100.00;68061.97;10334465;23;20039;-85
2023/09/30 09:24:38;;;;;;;7.68;3.90;;;;;;;-144.32;100.00;68061.97;10287251;28;20026;-84
2023/09/30 09:29:44;;;;;;;6.70;3.05;;;;;;;-144.32;100.00;68061.97;10517472;23;20051;-88
2023/09/30 09:35:00;;;;;;;6.28;4.10;;;;;;;-144.32;100.00;68061.97;10216737;29;20284;-86
2023/09/30 09:40:04;;;;;;;6.00;3.25;;;;;;;-144.32;100.00;68061.97;10208511;28;20048;-84
2023/09/30 09:45:05;;;;;;;6.75;3.75;;;;;;;-144.32;100.00;68061.97;10208726;28;20511;-84
2023/09/30 09:50:07;;;;;;;8.73;3.72;;;;;;;-144.32;100.00;68061.97;10200715;29;20497;-85
2023/09/30 09:55:10;;;;;;;6.67;3.13;;;;;;;-144.32;100.00;68061.97;10799875;23;20080;-85
2023/09/30 10:00:15;;;;;;;6.60;3.42;;;;;;;-144.32;100.00;68061.97;10297136;28;20055;-86
2023/09/30 10:05:18;;;;;;;5.32;3.15;;;;;;;-144.32;100.00;68061.97;10305531;28;20038;-82
2023/09/30 10:10:24;;;;;;;4.70;3.03;;;;;;;-144.32;100.00;68061.97;10504963;23;20074;-82
2023/09/30 10:15:30;;;;;;;5.65;3.05;;;;;;;-144.32;100.00;68061.97;10286581;28;20035;-84
2023/09/30 10:20:32;;;;;;;6.10;3.55;;;;;;;-144.32;100.00;68061.97;10370894;23;20063;-84
2023/09/30 10:25:36;;;;;;;5.73;2.83;;;;;;;-144.32;100.00;68061.97;10271630;28;20129;-81
2023/09/30 10:30:38;;;;;;;4.00;2.58;;;;;;;-144.32;100.00;68061.97;10259566;28;20058;-84
2023/09/30 10:35:42;;;;;;;3.92;2.47;;;;;;;-144.32;100.00;68061.97;10280800;28;20059;-89
2023/09/30 10:40:44;;;;;;;5.85;2.83;;;;;;;-144.32;100.00;68061.97;10221980;28;20548;-82
2023/09/30 10:45:46;;;;;;;5.40;2.50;;;;;;;-144.32;100.00;68061.97;10217104;29;20062;-83
2023/09/30 10:50:58;;;;;;;6.75;3.10;;;;;;;-144.32;100.00;68061.97;10210182;29;20102;-83
2023/09/30 10:56:03;;;;;;;4.93;2.70;;;;;;;-144.32;100.00;68061.97;10206660;29;20079;-84
2023/09/30 11:01:05;;;;;;;;;;;;;;;-144.32;100.00;68061.97;10211552;28;20051;-84
2023/09/30 11:06:05;;;;;;;4.75;3.00;;;;;;;-144.32;100.00;68061.97;10247211;29;19938;-84
2023/09/30 11:11:06;;;;;;;6.60;2.92;;;;;;;-144.32;100.00;68061.97;10211071;28;20102;-82
2023/09/30 11:16:08;;;;;;;4.90;2.60;;;;;;;-144.32;100.00;68061.97;10215419;28;20142;-82
2023/09/30 11:21:12;;;;;;;5.90;2.40;;;;;;;-144.32;100.00;68061.97;10206822;28;20051;-83
2023/09/30 11:26:14;;;;;;;6.40;2.53;;;;;;;-144.32;100.00;68061.97;10223118;29;20105;-81
2023/09/30 11:31:18;;;;;;;3.07;2.43;;;;;;;-144.32;100.00;68061.97;10206517;29;20063;-81
2023/09/30 11:36:21;;;;;;;6.45;2.92;;;;;;;-144.32;100.00;68061.97;10192786;29;20083;-82
2023/09/30 11:41:33;;;;;;;4.13;3.03;;;;;;;-144.32;100.00;68061.97;10207915;29;20051;-83
2023/09/30 11:46:59;;;;;;;4.38;2.33;;;;;;;-144.32;100.00;68061.97;10210252;29;20055;-82
2023/09/30 11:52:01;;;;;;;5.45;2.90;;;;;;;-144.32;100.00;68061.97;10216391;28;20107;-82
2023/09/30 11:57:03;;;;;;;;;;;;;;;-144.32;100.00;68061.97;10227708;28;20044;-82
2023/09/30 12:02:05;;;;;;;6.40;2.95;;;;;;;-144.32;100.00;68061.97;10226154;29;19966;-81
2023/09/30 12:07:06;;;;;;;4.67;2.97;;;;;;;-144.32;100.00;68061.97;10243648;28;20071;-81
2023/09/30 12:12:09;;;;;;;5.13;2.92;;;;;;;-144.32;100.00;68061.97;10256905;28;20015;-80
2023/09/30 12:17:10;;;;;;;3.58;2.60;;;;;;;-144.32;100.00;68061.97;10228133;29;20055;-79
2023/09/30 12:22:11;;;;;;;4.93;2.53;;;;;;;-144.32;100.00;68061.97;10218461;29;20493;-82
2023/09/30 12:27:13;;;;;;;;;;;;;;;-144.32;100.00;68061.97;10208202;28;20039;-81
2023/09/30 12:32:17;;;;;;;4.63;2.80;;;;;;;-144.32;100.00;68061.97;10215186;29;19934;-82
2023/09/30 12:37:20;;;;;;;5.83;3.10;;;;;;;-144.32;100.00;68061.97;10250339;28;20052;-83
2023/09/30 12:42:21;;;;;;;5.75;2.83;;;;;;;-144.32;100.00;68061.97;10223923;28;20048;-81
2023/09/30 12:47:22;;;;;;;7.97;3.83;;;;;;;-144.32;100.00;68061.97;10212520;29;20055;-80
2023/09/30 12:52:24;;;;;;;9.23;5.90;;;;;;;-144.32;100.00;68061.97;10209759;29;20063;-82
2023/09/30 12:57:26;;;;;;;4.60;2.90;;;;;;;-144.32;100.00;68061.97;10229211;28;20055;-87
2023/09/30 13:02:30;;;;;;;5.82;3.60;;;;;;;-144.32;100.00;68061.97;10243443;28;20503;-81
2023/09/30 13:07:32;;;;;;;7.13;4.05;;;;;;;-144.32;100.00;68061.97;10246362;28;20157;-85
2023/09/30 13:13:02;;;;;;;4.45;3.50;;;;;;;-144.32;100.00;68061.97;10232229;28;20070;-87
2023/09/30 13:18:05;;;;;;;7.65;3.30;;;;;;;-144.32;100.00;68061.97;10216017;28;20496;-81
2023/09/30 13:23:13;;;;;;;5.63;3.30;;;;;;;-144.32;100.00;68061.97;10191669;29;20058;-82
2023/09/30 13:28:16;;;;;;;6.25;3.63;;;;;;;-144.32;100.00;68061.97;10169230;28;20058;-81
2023/09/30 13:33:21;;;;;;;5.75;3.45;;;;;;;-144.32;100.00;68061.97;10196937;29;20052;-86
2023/09/30 13:38:41;;;;;;;5.27;3.47;;;;;;;-144.32;100.00;68061.97;10218876;28;20083;-85
2023/09/30 13:48:53;;;;;;;;;;;;;;;-144.32;100.00;68061.97;10289860;28;20039;-83
2023/09/30 13:54:00;;;;;;;6.95;4.00;;;;;;;-144.32;100.00;68061.97;10283070;28;19998;-86
2023/09/30 13:59:03;;;;;;;7.25;4.00;;;;;;;-144.32;100.00;68061.97;10251516;28;20561;-87
2023/09/30 14:04:14;;;;;;;6.18;4.28;;;;;;;-144.32;100.00;68061.97;10849484;23;20043;-86
2023/09/30 14:09:45;;;;;;;7.20;4.18;;;;;;;-144.32;100.00;68061.97;10277187;28;20076;-82
2023/09/30 14:14:51;;;;;;;6.78;4.30;;;;;;;-144.32;100.00;68061.97;10287951;28;20794;-79
2023/09/30 14:19:51;;;;;;;5.47;3.53;;;;;;;-144.32;100.00;68061.97;10876668;23;20054;-86
2023/09/30 14:24:53;;;;;;;6.60;4.10;;;;;;;-144.32;100.00;68061.97;10603900;23;20055;-86
2023/09/30 14:35:32;;;;;;;5.20;3.42;;;;;;;-144.32;100.00;68061.97;11932663;23;20042;-84
2023/09/30 14:40:39;;;;;;;6.72;4.07;;;;;;;-144.32;100.00;68061.97;10302892;28;20046;-84
2023/09/30 14:45:40;;;;;;;7.70;4.35;;;;;;;-144.32;100.00;68061.97;10298500;28;20106;-82
2023/09/30 14:50:51;;;;;;;6.63;4.25;;;;;;;-144.32;100.00;68061.97;10900046;23;20042;-87
2023/09/30 14:55:53;;;;;;;6.38;4.05;;;;;;;-144.32;100.00;68061.97;10292566;23;20062;-84
2023/09/30 15:00:53;;;;;;;7.88;4.10;;;;;;;-144.32;100.00;68061.97;10262411;28;20483;-86
2023/09/30 15:05:59;;;;;;;6.45;4.25;;;;;;;-144.32;100.00;68061.97;10257353;28;20271;-84
2023/09/30 15:11:00;;;;;;;8.68;4.07;;;;;;;-144.32;100.00;68061.97;10228795;28;20063;-83
2023/09/30 15:16:01;;;;;;;6.82;4.10;;;;;;;-144.32;100.00;68061.97;10234250;28;20767;-84
2023/09/30 15:21:03;;;;;;;8.80;4.63;;;;;;;-144.32;100.00;68061.97;10258994;28;20099;-82
2023/09/30 15:26:04;;;;;;;7.75;3.83;;;;;;;-144.32;100.00;68061.97;10269129;28;20043;-83
2023/09/30 15:31:05;;;;;;;8.73;4.03;;;;;;;-144.32;100.00;68061.97;10258722;28;20050;-85
2023/09/30 15:36:18;;;;;;;8.05;4.32;;;;;;;-144.32;100.00;68061.97;10220341;28;20057;-82
2023/09/30 15:41:24;;;;;;;9.05;5.60;;;;;;;-144.32;100.00;68061.97;10197481;29;20055;-84
2023/09/30 15:46:29;;;;;;;7.75;5.72;;;;;;;-144.32;100.00;68061.97;10211043;29;20055;-82
2023/09/30 15:51:32;;;;;;;9.63;6.78;;;;;;;-144.32;100.00;68061.97;10185383;28;20055;-81
2023/09/30 15:56:32;;;;;;;8.50;7.25;;;;;;;-144.32;100.00;68061.97;10193398;29;20047;-78
2023/09/30 16:01:35;;;;;;;9.13;7.22;;;;;;;-144.32;100.00;68061.97;10183270;29;20051;-77
2023/09/30 16:06:36;;;;;;;10.52;8.23;;;;;;;-144.32;100.00;68061.97;10198480;29;20059;-79
2023/09/30 16:11:36;;;;;;;12.88;8.07;;;;;;;-144.32;100.00;68061.97;10196690;29;20111;-77
2023/09/30 16:16:37;;;;;;;10.00;7.18;;;;;;;-144.32;100.00;68061.97;10205023;28;20058;-79
2023/09/30 16:21:37;;;;;;;14.73;9.77;;;;;;;-144.32;100.00;68061.97;10179596;29;20044;-83
2023/09/30 16:26:42;;;;;;;11.60;8.48;;;;;;;-144.32;100.00;68061.97;10157291;29;20111;-77
2023/09/30 16:31:44;;;;;;;11.15;8.13;;;;;;;-144.32;100.00;68061.97;10191500;29;20113;-79
2023/09/30 16:36:45;;;;;;;11.23;8.77;;;;;;;-144.32;100.00;68061.97;10180310;29;20090;-77
2023/09/30 16:41:48;;;;;;;11.35;8.23;;;;;;;-144.32;100.00;68061.97;10190999;29;20050;-79
2023/09/30 16:46:49;;;;;;;10.82;7.97;;;;;;;-144.32;100.00;68061.97;10184689;28;20048;-82
2023/09/30 16:51:55;;;;;;;;;;;;;;;-144.32;100.00;68061.97;10197009;29;20035;-88
2023/09/30 16:57:04;;;;;;;11.15;7.80;;;;;;;-144.32;100.00;68061.97;10238614;28;19985;-84
2023/09/30 17:02:12;;;;;;;12.05;7.30;;;;;;;-144.32;100.00;68061.97;10220150;28;20019;-88
2023/09/30 17:07:23;;;;;;;10.52;6.82;;;;;;;-144.32;100.00;68061.97;10207624;29;20128;-83
2023/09/30 17:12:25;;;;;;;10.38;7.63;;;;;;;-144.32;100.00;68061.97;10196498;29;20078;-86
2023/09/30 17:17:51;;;;;;;10.60;6.80;;;;;;;-144.32;100.00;68061.97;10199155;28;20055;-88
2023/09/30 17:22:53;;;;;;;10.27;6.88;;;;;;;-144.32;100.00;68061.97;10203413;28;20064;-84
2023/09/30 17:27:54;;;;;;;14.80;8.35;;;;;;;-144.32;100.00;68061.97;10247674;28;20039;-85
2023/09/30 17:32:55;;;;;;;12.23;8.20;;;;;;;-144.32;100.00;68061.97;10487076;23;20085;-87
2023/09/30 17:37:57;;;;;;;;;;;;;;;-144.32;100.00;68061.97;10264515;28;20062;-83
2023/09/30 17:42:58;;;;;;;23.70;17.45;;;;;;;-144.32;100.00;68061.97;10248863;28;19934;-84
2023/09/30 17:48:02;;;;;;;20.23;14.98;;;;;;;-144.32;100.00;68061.97;10236202;28;20078;-83
2023/09/30 17:53:03;;;;;;;26.73;18.38;;;;;;;-144.32;100.00;68061.97;10233266;28;20070;-86
2023/09/30 17:58:04;;;;;;;23.88;17.15;;;;;;;-144.32;100.00;68061.97;10246343;28;20046;-82
2023/09/30 18:03:13;;;;;;;20.45;16.50;;;;;;;-144.32;100.00;68061.97;10244000;28;20396;-84
2023/09/30 18:08:22;;;;;;;23.33;15.32;;;;;;;-144.32;100.00;68061.97;10239352;28;20046;-87
2023/09/30 18:13:23;;;;;;;21.25;13.43;;;;;;;-144.32;100.00;68061.97;10201743;28;20122;-85
2023/09/30 18:18:46;;;;;;;18.27;12.40;;;;;;;-144.32;100.00;68061.97;10223314;28;20139;-84
2023/09/30 18:23:48;;;;;;;15.18;11.23;;;;;;;-144.32;100.00;68061.97;10221201;28;20047;-86
2023/09/30 18:28:54;;;;;;;15.70;11.38;;;;;;;-144.32;100.00;68061.97;10215993;28;20059;-83
2023/09/30 18:33:58;;;;;;;17.48;11.10;;;;;;;-144.32;100.00;68061.97;10278257;28;20047;-83
2023/09/30 18:39:02;;;;;;;14.68;10.27;;;;;;;-144.32;100.00;68061.97;10259256;28;20067;-85
2023/09/30 18:44:03;;;;;;;17.45;11.70;;;;;;;-144.32;100.00;68061.97;10286656;28;20057;-83
2023/09/30 18:49:07;;;;;;;16.23;10.90;;;;;;;-144.32;100.00;68061.97;10262459;28;20048;-82
2023/09/30 18:54:28;;;;;;;17.55;11.00;;;;;;;-144.32;100.00;68061.97;10292920;28;20035;-83
2023/09/30 19:00:02;;;;;;;14.77;10.80;;;;;;;-144.32;100.00;68061.97;10348958;23;20068;31
2023/09/30 19:05:08;;;;;;;20.20;12.32;;;;;;;-144.32;100.00;68061.97;10216556;28;20051;-84
2023/09/30 19:15:34;;;;;;;;;;;;;;;-144.32;100.00;68061.97;10522321;23;20039;-88
2023/09/30 19:20:48;;;;;;;19.17;13.00;;;;;;;-144.32;100.00;68061.97;10717369;23;19936;-88
2023/09/30 19:26:32;;;;;;;20.55;13.45;;;;;;;-144.32;100.00;68061.97;10409428;23;20070;-87
2023/09/30 19:31:39;;;;;;;18.33;12.13;;;;;;;-144.32;100.00;68061.97;10789332;23;20047;-84
2023/09/30 19:36:43;;;;;;;17.00;12.30;;;;;;;-144.32;100.00;68061.97;10266136;28;20502;-85
2023/09/30 19:41:54;;;;;;;15.95;10.50;;;;;;;-144.32;100.00;68061.97;10328107;28;20103;-85
2023/09/30 19:46:57;;;;;;;16.33;11.80;;;;;;;-144.32;100.00;68061.97;10402965;23;20134;-88
2023/09/30 19:52:08;;;;;;;17.77;12.35;;;;;;;-144.32;100.00;68061.97;10195838;29;20623;-86
2023/09/30 19:57:14;;;;;;;13.38;9.73;;;;;;;-144.32;100.00;68061.97;10336276;23;20136;-86
2023/09/30 20:02:26;;;;;;;12.65;9.57;;;;;;;-144.32;100.00;68061.97;10291588;28;20075;-85
2023/09/30 20:07:30;;;;;;;15.30;9.75;;;;;;;-144.32;100.00;68061.97;10265346;23;20043;-86
2023/09/30 20:13:15;;;;;;;12.02;8.95;;;;;;;-144.32;100.00;68061.97;10625705;23;20050;-88
2023/09/30 20:19:04;;;;;;;13.60;8.60;;;;;;;-144.32;100.00;68061.97;10292521;28;20071;-84
2023/09/30 20:24:12;;;;;;;14.38;8.50;;;;;;;-144.32;100.00;68061.97;10318252;28;20122;-87
2023/09/30 20:34:54;;;;;;;10.73;7.53;;;;;;;-144.32;100.00;68061.97;10197795;29;20482;-86
2023/09/30 20:40:18;;;;;;;11.18;6.75;;;;;;;-144.32;100.00;68061.97;10184696;29;20071;-85
2023/09/30 20:45:20;;;;;;;12.18;7.80;;;;;;;-144.32;100.00;68061.97;10163559;29;20066;-85
2023/09/30 20:50:29;;;;;;;12.13;7.80;;;;;;;-144.32;100.00;68061.97;10171562;29;20040;-85
2023/09/30 20:55:39;;;;;;;10.98;8.13;;;;;;;-144.32;100.00;68061.97;10169189;29;20051;-86
2023/09/30 21:00:47;;;;;;;9.68;6.97;;;;;;;-144.32;100.00;68061.97;10418210;23;20113;-86
2023/09/30 21:06:58;;;;;;;13.65;7.80;;;;;;;-144.32;100.00;68061.97;10487775;23;20058;-86
2023/09/30 21:12:28;;;;;;;12.15;7.55;;;;;;;-144.32;100.00;68061.97;10360293;23;20065;-85
2023/09/30 21:17:39;;;;;;;12.60;8.80;;;;;;;-144.32;100.00;68061.97;10304066;28;20039;-82
2023/09/30 21:22:40;;;;;;;14.15;9.27;;;;;;;-144.32;100.00;68061.97;10299314;28;20067;-83
2023/09/30 21:27:43;;;;;;;16.48;9.75;;;;;;;-144.32;100.00;68061.97;10263423;28;20058;-83
2023/09/30 21:32:45;;;;;;;13.10;9.35;;;;;;;-144.32;100.00;68061.97;10270047;28;20050;-83
2023/09/30 21:38:09;;;;;;;;;;;;;;;-144.32;100.00;68061.97;10240299;28;20135;-83
2023/09/30 21:43:17;;;;;;;13.00;9.75;;;;;;;-144.32;100.00;68061.97;10259882;28;19942;-85
2023/09/30 21:48:18;;;;;;;13.70;8.88;;;;;;;-144.32;100.00;68061.97;10249631;28;20047;-85
2023/09/30 21:53:27;;;;;;;13.25;9.82;;;;;;;-144.32;100.00;68061.97;10294932;28;20127;-84
2023/09/30 21:58:33;;;;;;;14.90;10.18;;;;;;;-144.32;100.00;68061.97;10189429;29;20051;-83
2023/09/30 22:03:35;;;;;;;12.73;8.25;;;;;;;-144.32;100.00;68061.97;10181629;28;20062;-83
2023/09/30 22:08:36;;;;;;;13.05;9.27;;;;;;;-144.32;100.00;68061.97;10202342;29;20055;-83
2023/09/30 22:13:37;;;;;;;14.35;8.80;;;;;;;-144.32;100.00;68061.97;10173738;29;20044;-81
2023/09/30 22:18:38;;;;;;;14.05;8.90;;;;;;;-144.32;100.00;68061.97;10165270;29;20074;-81
2023/09/30 22:23:40;;;;;;;13.15;9.30;;;;;;;-144.32;100.00;68061.97;10188534;29;20044;-84
2023/09/30 22:28:45;;;;;;;12.82;8.65;;;;;;;-144.32;100.00;68061.97;10219432;29;20035;-86
2023/09/30 22:33:58;;;;;;;15.10;9.50;;;;;;;-144.32;100.00;68061.97;10194371;29;20106;-82
2023/09/30 22:39:00;;;;;;;13.75;8.52;;;;;;;-144.32;100.00;68061.97;10222893;29;20112;-81
2023/09/30 22:44:00;;;;;;;11.00;8.35;;;;;;;-144.32;100.00;68061.97;10219913;29;20136;-82
2023/09/30 22:49:01;;;;;;;18.67;10.30;;;;;;;-144.32;100.00;68061.97;10182650;29;20043;-82
2023/09/30 22:54:03;;;;;;;12.75;8.32;;;;;;;-144.32;100.00;68061.97;10176405;29;20047;-85
2023/09/30 22:59:07;;;;;;;11.48;8.20;;;;;;;-144.32;100.00;68061.97;10197419;28;20044;-83
2023/09/30 23:04:15;;;;;;;13.52;8.20;;;;;;;-144.32;100.00;68061.97;10188269;29;20058;-82
2023/09/30 23:09:21;;;;;;;12.57;8.85;;;;;;;-144.32;100.00;68061.97;10185057;29;20048;-82
2023/09/30 23:14:23;;;;;;;13.32;8.10;;;;;;;-144.32;100.00;68061.97;10183396;29;20063;-83
2023/09/30 23:19:26;;;;;;;13.18;8.18;;;;;;;-144.32;100.00;68061.97;10197692;28;20122;-83
2023/09/30 23:24:29;;;;;;;12.48;8.10;;;;;;;-144.32;100.00;68061.97;10206298;29;20052;-84
2023/09/30 23:29:39;;;;;;;13.30;8.38;;;;;;;-144.32;100.00;68061.97;10196774;29;20048;-84
2023/09/30 23:34:41;;;;;;;11.98;7.72;;;;;;;-144.32;100.00;68061.97;10210090;28;20068;-85
2023/09/30 23:39:47;;;;;;;13.40;8.20;;;;;;;-144.32;100.00;68061.97;10225084;29;20119;-85
2023/09/30 23:44:50;;;;;;;11.70;8.27;;;;;;;-144.32;100.00;68061.97;10225910;28;20063;-85
2023/09/30 23:49:53;;;;;;;12.68;8.20;;;;;;;-144.32;100.00;68061.97;10194615;29;20497;-85
2023/09/30 23:55:01;;;;;;;14.25;7.75;;;;;;;-144.32;100.00;68061.97;10186757;29;20047;-80
